Latest Weather Observations for Esperance

IDW60801

Issued at 5:23 am WST Tuesday 7 December 2021 (issued every 10 minutes, with the page automatically refreshed every 10 minutes)

About weather observations | Map of weather stations | Latest weather observations for WA | Other Formats
Station Details ID: 009789 Name: ESPERANCE Lat: -33.83 Lon: 121.89 Height: 25.0 m
Data from the previous 72 hours. | See also: Recent months at Esperance
Date/Time
WST
Temp
°C
App
Temp
°C
Dew
Point
°C
Rel
Hum
%
Delta-T
°C
Wind Press
QNH
hPa
Press
MSL
hPa
Rain since
9am
mm
Dir  Spd
km/h
Gust
km/h
Spd
kts
Gust
kts
07/05:00am 12.9 10.3 7.6 70 2.6 NE 11 15 6 8 1022.6 1022.5 0.0
07/04:30am 13.2 10.5 7.4 68 2.8 NE 11 19 6 10 1022.3 1022.2 0.0
07/04:00am 13.4 10.4 7.6 68 2.8 NE 13 19 7 10 1022.2 1022.1 0.0
07/03:30am 13.4 11.3 8.3 71 2.5 ENE 9 15 5 8 1022.0 1021.9 0.0
07/03:00am 13.3 11.2 8.4 72 2.4 ENE 9 13 5 7 1021.6 1021.5 0.0
07/02:30am 13.3 11.2 8.4 72 2.4 ENE 9 13 5 7 1021.5 1021.4 0.0
07/02:00am 13.9 11.5 8.7 71 2.6 E 11 15 6 8 1021.6 1021.5 0.0
07/01:30am 14.3 11.6 8.9 70 2.7 E 13 19 7 10 1021.6 1021.5 0.0
07/01:00am 14.4 11.7 9.0 70 2.7 E 13 19 7 10 1021.7 1021.6 0.0
07/12:30am 14.4 11.7 9.0 70 2.7 E 13 19 7 10 1021.7 1021.6 0.0
07/12:00am 14.4 12.2 9.2 71 2.6 E 11 17 6 9 1021.8 1021.7 0.0
 
Date/Time
WST
Temp
°C
App
Temp
°C
Dew
Point
°C
Rel
Hum
%
Delta-T
°C
Wind Press
QNH
hPa
Press
MSL
hPa
Rain since
9am
mm
Dir  Spd
km/h
Gust
km/h
Spd
kts
Gust
kts
06/11:30pm 14.7 12.5 9.3 70 2.8 E 11 17 6 9 1021.9 1021.8 0.0
06/11:00pm 15.3 11.4 9.4 68 3.0 ESE 20 28 11 15 1022.0 1021.9 0.0
06/10:30pm 15.6 11.3 9.5 67 3.2 ESE 22 32 12 17 1022.0 1021.9 0.0
06/10:00pm 15.6 10.2 9.5 67 3.1 ESE 28 39 15 21 1022.0 1021.9 0.0
06/09:30pm 15.6 10.9 9.1 65 3.3 ESE 24 35 13 19 1022.2 1022.1 0.0
06/09:00pm 15.6 11.0 9.5 67 3.1 ESE 24 35 13 19 1022.2 1022.1 0.0
06/08:30pm 15.6 10.9 9.3 66 3.3 ESE 24 33 13 18 1022.1 1022.0 0.0
06/08:00pm 15.7 10.2 9.1 65 3.4 ESE 28 35 15 19 1021.8 1021.7 0.0
06/07:30pm 15.9 10.8 9.3 65 3.4 ESE 26 37 14 20 1021.6 1021.5 0.0
06/07:00pm 16.1 11.0 9.3 64 3.5 SE 26 37 14 20 1021.5 1021.4 0.0
06/06:30pm 16.2 11.2 9.6 65 3.4 SE 26 35 14 19 1021.2 1021.1 0.0
06/06:00pm 16.3 11.3 9.5 64 3.5 SE 26 35 14 19 1021.1 1021.0 0.0
06/05:30pm 16.5 11.6 9.9 65 3.5 SE 26 35 14 19 1020.9 1020.8 0.0
06/05:00pm 16.6 11.7 9.8 64 3.6 SE 26 39 14 21 1020.6 1020.5 0.0
06/04:30pm 16.7 11.4 9.9 64 3.6 SE 28 43 15 23 1020.4 1020.3 0.0
06/04:00pm 16.8 11.2 10.0 64 3.6 SE 30 43 16 23 1020.3 1020.2 0.0
06/03:30pm 17.1 11.1 10.0 63 3.7 SE 32 41 17 22 1020.2 1020.1 0.0
06/03:00pm 17.9 12.1 10.8 63 3.8 SSE 32 41 17 22 1020.2 1020.1 0.0
06/02:30pm 18.6 13.1 10.7 60 4.3 SSE 30 43 16 23 1020.1 1020.0 0.0
06/02:00pm 18.3 12.5 10.7 61 4.1 SE 32 44 17 24 1019.9 1019.8 0.0
06/01:30pm 18.0 12.3 11.1 64 3.7 SSE 32 44 17 24 1020.0 1019.9 0.0
06/01:00pm 18.6 13.0 12.1 66 3.6 SSE 33 44 18 24 1020.1 1020.0 0.0
06/12:37pm 18.2 12.7 12.4 69 3.2 SSE 33 48 18 26 1020.1 1020.0 0.0
06/12:30pm 18.0 12.5 12.0 68 3.3 SSE 32 43 17 23 1020.2 1020.1 0.0
06/12:12pm 17.6 11.7 12.3 71 2.9 SSE 35 46 19 25 1020.0 1019.9 0.0
06/12:00pm 17.6 11.0 12.5 72 2.8 SSE 39 48 21 26 1020.0 1019.9 0.0
06/11:30am 18.1 12.9 12.8 71 3.0 SSE 32 43 17 23 1019.8 1019.7 0.0
06/11:00am 18.4 13.5 12.6 69 3.2 SSE 30 41 16 22 1019.8 1019.7 0.0
06/10:30am 19.3 14.8 12.6 65 3.8 S 28 35 15 19 1019.9 1019.8 0.0
06/10:00am 19.3 15.0 13.3 68 3.4 S 28 35 15 19 1019.9 1019.8 0.0
06/09:30am 19.0 14.9 12.7 67 3.5 SSE 26 35 14 19 1019.9 1019.8 0.0
06/09:00am 19.3 15.5 11.3 60 4.4 SSE 22 30 12 16 1019.9 1019.8 0.0
06/08:30am 19.2 16.4 11.5 61 4.2 SSE 17 24 9 13 1019.9 1019.8 0.0
06/08:00am 19.0 15.8 12.0 64 3.9 SE 20 26 11 14 1019.8 1019.7 0.0
06/07:30am 18.7 15.7 11.8 64 3.8 SSE 19 26 10 14 1019.9 1019.8 0.0
06/07:00am 18.5 15.4 12.3 67 3.4 SSE 20 30 11 16 1019.8 1019.7 0.0
06/06:30am 18.1 14.6 12.1 68 3.3 SSE 22 32 12 17 1019.4 1019.3 0.0
06/06:00am 17.6 15.3 11.9 69 3.1 S 15 20 8 11 1019.1 1019.0 0.0
06/05:30am 17.1 14.4 10.2 64 3.7 SSE 15 20 8 11 1018.9 1018.8 0.0
06/05:00am 17.1 14.6 9.8 62 3.8 SE 13 17 7 9 1018.6 1018.5 0.0
06/04:30am 17.0 13.7 9.4 61 4.0 SSE 17 22 9 12 1018.4 1018.3 0.0
06/04:00am 17.1 13.7 10.7 66 3.4 SE 19 24 10 13 1018.1 1018.0 0.0
06/03:30am 16.9 13.9 11.8 72 2.8 SE 19 28 10 15 1018.0 1017.9 0.0
06/03:00am 16.5 14.1 12.8 79 2.1 SE 17 26 9 14 1017.7 1017.6 0.0
06/02:30am 17.1 15.8 12.6 75 2.5 SE 11 17 6 9 1017.7 1017.6 0.0
06/02:00am 17.1 15.1 12.6 75 2.5 SE 15 20 8 11 1017.5 1017.4 0.0
06/01:30am 17.0 15.0 12.7 76 2.4 SE 15 20 8 11 1017.7 1017.6 0.0
06/01:00am 16.7 14.7 12.7 77 2.2 ESE 15 20 8 11 1017.5 1017.4 0.0
06/12:30am 16.9 14.5 12.8 77 2.3 SE 17 26 9 14 1017.8 1017.7 0.0
06/12:00am 17.1 14.7 12.8 76 2.4 SE 17 22 9 12 1017.8 1017.7 0.0
 
Date/Time
WST
Temp
°C
App
Temp
°C
Dew
Point
°C
Rel
Hum
%
Delta-T
°C
Wind Press
QNH
hPa
Press
MSL
hPa
Rain since
9am
mm
Dir  Spd
km/h
Gust
km/h
Spd
kts
Gust
kts
05/11:30pm 17.1 15.2 13.0 77 2.3 ESE 15 20 8 11 1017.8 1017.7 0.0
05/11:00pm 17.3 15.5 13.2 77 2.3 SE 15 20 8 11 1017.8 1017.7 0.0
05/10:30pm 17.5 15.3 13.4 77 2.3 SE 17 24 9 13 1017.8 1017.7 0.0
05/10:00pm 17.5 15.0 13.4 77 2.3 SE 19 26 10 14 1017.8 1017.7 0.0
05/09:30pm 17.4 14.7 13.5 78 2.2 SE 20 28 11 15 1017.6 1017.5 0.0
05/09:00pm 17.5 14.9 13.8 79 2.1 SE 20 30 11 16 1017.4 1017.3 0.0
05/08:30pm 17.6 15.0 13.9 79 2.1 SE 20 28 11 15 1017.5 1017.4 0.0
05/08:00pm 17.5 15.2 14.0 80 2.0 SE 19 26 10 14 1016.9 1016.8 0.0
05/07:30pm 17.4 14.6 13.3 77 2.3 ESE 20 28 11 15 1016.2 1016.1 0.0
05/07:00pm 17.6 15.1 13.5 77 2.3 ESE 19 28 10 15 1016.2 1016.1 0.0
05/06:30pm 18.2 15.7 13.5 74 2.7 ESE 19 26 10 14 1015.9 1015.8 0.0
05/06:00pm 18.5 14.9 13.1 71 3.0 SE 24 32 13 17 1015.2 1015.2 0.0
05/05:30pm 19.0 14.8 13.6 71 3.1 SE 28 35 15 19 1015.3 1015.3 0.0
05/05:00pm 19.3 15.8 13.5 69 3.3 SSE 24 33 13 18 1015.3 1015.3 0.0
05/04:30pm 20.4 16.5 14.3 68 3.5 SE 28 35 15 19 1014.8 1014.8 0.0
05/04:00pm 20.4 16.2 13.6 65 3.9 SE 28 35 15 19 1014.9 1014.9 0.0
05/03:30pm 20.2 15.7 13.9 67 3.6 SE 30 39 16 21 1015.1 1015.1 0.0
05/03:00pm 21.2 17.3 13.4 61 4.5 SSE 26 35 14 19 1015.3 1015.3 0.0
05/02:30pm 21.0 17.1 13.4 62 4.4 SSE 26 35 14 19 1015.3 1015.3 0.0
05/02:00pm 20.8 15.8 13.5 63 4.2 SSE 32 39 17 21 1015.5 1015.4 0.0
05/01:30pm 21.4 16.7 14.3 64 4.1 SSE 32 43 17 23 1015.6 1015.5 0.0
05/01:00pm 21.2 16.7 13.9 63 4.2 SSE 30 37 16 20 1015.6 1015.5 0.0
05/12:30pm 22.0 17.8 13.4 58 5.0 SE 28 35 15 19 1015.7 1015.6 0.0
05/12:00pm 21.7 18.0 13.9 61 4.5 SSE 26 35 14 19 1016.0 1015.9 0.0
05/11:30am 20.6 15.9 13.3 63 4.2 SSE 30 39 16 21 1016.4 1016.3 0.0
05/11:00am 21.8 18.4 13.7 60 4.7 SSE 24 30 13 16 1016.7 1016.6 0.0
05/10:30am 22.0 19.4 12.0 53 5.6 SSE 17 22 9 12 1016.9 1016.8 0.0
05/10:00am 21.8 19.3 12.4 55 5.3 SSE 17 20 9 11 1017.4 1017.3 0.0
05/09:30am 20.9 18.9 12.6 59 4.7 SE 15 20 8 11 1017.8 1017.7 0.0
05/09:00am 21.2 20.5 12.1 56 5.1 NE 7 13 4 7 1018.1 1018.0 0.0
05/08:30am 19.7 18.5 11.7 60 4.4 NE 9 17 5 9 1018.6 1018.5 0.0
05/08:00am 18.7 16.9 12.0 65 3.7 ENE 13 22 7 12 1019.0 1018.9 0.0
05/07:30am 16.6 14.4 10.9 69 3.1 NE 13 26 7 14 1019.4 1019.3 0.0
05/07:26am 17.0 15.0 11.5 70 3.0 NE 13 20 7 11 1019.5 1019.4 0.0
05/07:00am 15.4 14.0 10.8 74 2.4 E 9 13 5 7 1019.7 1019.6 0.0
05/06:58am 15.1 13.6 10.5 74 2.4 E 9 15 5 8 1019.8 1019.7 0.0
05/06:30am 13.7 12.1 10.3 80 1.8 E 9 13 5 7 1019.9 1019.8 0.0
05/06:00am 12.2 11.0 9.6 84 1.3 ENE 6 9 3 5 1020.0 1019.9 0.0
05/05:30am 12.2 10.4 9.4 83 1.4 E 9 11 5 6 1020.0 1019.9 0.0
05/05:00am 11.5 9.3 9.4 87 1.1 E 11 13 6 7 1020.1 1020.0 0.0
05/04:30am 10.7 8.7 8.6 87 1.0 ESE 9 11 5 6 1019.9 1019.8 0.0
05/04:00am 10.3 8.2 8.2 87 1.0 E 9 13 5 7 1019.6 1019.5 0.0
05/03:30am 10.8 8.7 8.4 85 1.2 E 9 13 5 7 1019.6 1019.5 0.0
05/03:00am 11.4 9.4 8.8 84 1.3 ENE 9 13 5 7 1019.5 1019.4 0.0
05/02:30am 11.7 9.3 8.7 82 1.5 E 11 13 6 7 1019.7 1019.6 0.0
05/02:00am 11.8 9.4 8.8 82 1.5 ESE 11 15 6 8 1019.8 1019.7 0.0
05/01:30am 11.6 9.2 8.5 81 1.5 E 11 15 6 8 1019.6 1019.5 0.0
05/01:00am 11.8 9.4 8.5 80 1.6 E 11 17 6 9 1019.5 1019.4 0.0
05/12:30am 12.2 9.8 8.7 79 1.7 E 11 15 6 8 1019.9 1019.8 0.0
05/12:00am 12.4 10.4 8.7 78 1.8 ESE 9 13 5 7 1020.4 1020.3 0.0
 
Date/Time
WST
Temp
°C
App
Temp
°C
Dew
Point
°C
Rel
Hum
%
Delta-T
°C
Wind Press
QNH
hPa
Press
MSL
hPa
Rain since
9am
mm
Dir  Spd
km/h
Gust
km/h
Spd
kts
Gust
kts
04/11:30pm 12.9 10.9 8.8 76 2.1 E 9 17 5 9 1020.6 1020.5 0.0
04/11:00pm 13.2 10.9 8.9 75 2.2 E 11 19 6 10 1021.1 1021.0 0.0
04/10:30pm 13.6 11.3 9.1 74 2.3 E 11 15 6 8 1021.4 1021.3 0.0
04/10:00pm 14.1 11.5 9.5 74 2.4 E 13 20 7 11 1021.3 1021.2 0.0
04/09:30pm 14.8 11.6 9.8 72 2.6 ESE 17 26 9 14 1021.6 1021.5 0.0
04/09:00pm 15.3 11.6 10.1 71 2.7 E 20 28 11 15 1021.5 1021.4 0.0
04/08:30pm 15.7 12.1 10.7 72 2.7 ESE 20 28 11 15 1021.5 1021.4 0.0
04/08:00pm 16.0 11.3 10.7 71 2.8 ESE 26 41 14 22 1021.1 1021.0 0.0
04/07:30pm 16.5 11.9 11.0 70 3.0 ESE 26 35 14 19 1021.1 1021.0 0.0
04/07:00pm 16.8 12.6 11.1 69 3.1 ESE 24 39 13 21 1021.2 1021.1 0.0
04/06:30pm 17.2 12.2 10.8 66 3.4 ESE 28 41 15 22 1020.9 1020.8 0.0
04/06:00pm 17.7 12.0 11.0 65 3.6 ESE 32 44 17 24 1020.5 1020.4 0.0
04/05:47pm 17.9 12.5 10.8 63 3.8 ESE 30 48 16 26 1020.4 1020.3 0.0
04/05:30pm 18.4 13.0 11.0 62 4.0 ESE 30 43 16 23 1020.5 1020.4 0.0
04/05:00pm 18.7 13.0 11.0 61 4.2 ESE 32 46 17 25 1020.4 1020.3 0.0
04/04:53pm 18.8 12.9 11.1 61 4.2 ESE 33 52 18 28 1020.4 1020.3 0.0
04/04:30pm 19.0 13.3 11.3 61 4.2 SE 32 46 17 25 1020.4 1020.3 0.0
04/04:00pm 19.3 13.0 11.1 59 4.5 SE 35 48 19 26 1020.1 1020.0 0.0
04/03:30pm 19.2 12.9 11.0 59 4.5 SE 35 50 19 27 1020.4 1020.3 0.0
04/03:00pm 19.9 14.0 11.1 57 4.8 SE 33 50 18 27 1020.6 1020.5 0.0
04/02:30pm 20.0 14.1 11.2 57 4.8 SE 33 48 18 26 1020.5 1020.4 0.0
04/02:00pm 20.7 15.0 11.3 55 5.2 SE 32 44 17 24 1021.0 1020.9 0.0
04/01:30pm 20.1 14.2 11.1 56 4.9 SE 33 50 18 27 1021.2 1021.1 0.0
04/01:26pm 19.6 13.8 10.9 57 4.7 SE 32 50 17 27 1021.2 1021.1 0.0
04/01:00pm 20.1 14.2 11.3 57 4.8 SE 33 46 18 25 1021.6 1021.5 0.0
04/12:30pm 20.1 14.0 10.5 54 5.2 SE 33 46 18 25 1021.8 1021.7 0.0
04/12:00pm 20.2 14.1 10.6 54 5.2 SE 33 44 18 24 1022.4 1022.3 0.0
04/11:30am 19.7 13.6 10.4 55 5.0 SE 33 48 18 26 1022.6 1022.5 0.0
04/11:00am 20.0 14.5 10.4 54 5.2 SE 30 41 16 22 1023.2 1023.1 0.0
04/10:30am 20.1 14.9 10.2 53 5.3 SE 28 39 15 21 1023.6 1023.5 0.0
04/10:00am 19.7 14.5 10.1 54 5.1 SE 28 41 15 22 1023.9 1023.8 0.0
04/09:30am 19.5 14.6 10.0 54 5.1 SE 26 35 14 19 1024.3 1024.2 0.0
04/09:00am 19.1 14.9 9.9 55 4.9 SE 22 33 12 18 1024.6 1024.5 0.0
04/08:30am 18.4 14.0 8.9 54 4.9 ESE 22 32 12 17 1024.9 1024.8 0.0
04/08:00am 18.6 15.1 8.8 53 5.1 ESE 17 28 9 15 1025.2 1025.1 0.0
04/07:30am 18.0 14.1 8.8 55 4.8 ESE 19 28 10 15 1025.3 1025.2 0.0
04/07:00am 16.8 12.3 8.5 58 4.2 E 22 33 12 18 1025.4 1025.3 0.0
04/06:30am 16.2 11.8 8.9 62 3.8 ESE 22 30 12 16 1025.5 1025.4 0.0
04/06:00am 15.6 12.2 9.1 65 3.3 ESE 17 24 9 13 1025.6 1025.5 0.0
04/05:30am 14.4 10.9 8.6 68 2.9 ESE 17 22 9 12 1025.6 1025.5 0.0

Other formats

Comma delimited format used in spreadsheet applications
http://www.bom.gov.au/fwo/IDW60801/IDW60801.94638.axf

JavaScript Object Notation format (JSON) in row-major order
http://www.bom.gov.au/fwo/IDW60801/IDW60801.94638.json

Data quality

Most of these data are generated automatically and are frequently updated. Quality checks on data are not normally performed. It is possible for incorrect values to appear. Refer to information at About Latest Weather Observations and please check the disclaimer before using these data.